createdAt,value
2017-04-21T00:00:41.732Z,68.90
2017-04-21T00:01:39.620Z,67.90
2017-04-21T00:02:37.552Z,68.20
2017-04-21T00:03:35.393Z,68.10
2017-04-21T00:04:33.334Z,69.50
2017-04-21T00:05:31.197Z,69.10
2017-04-21T00:06:29.048Z,68.90
2017-04-21T00:07:26.976Z,68.90
2017-04-21T00:08:24.840Z,68.80
2017-04-21T00:09:22.721Z,68.90
2017-04-21T00:10:20.604Z,68.50
2017-04-21T00:11:18.475Z,69.40
2017-04-21T00:12:16.324Z,69.70
2017-04-21T00:13:14.220Z,69.20
2017-04-21T00:14:12.109Z,70.00
2017-04-21T00:15:10.033Z,70.60
2017-04-21T00:16:08.018Z,70.60
2017-04-21T00:17:05.880Z,70.30
2017-04-21T00:18:03.804Z,70.40
2017-04-21T00:19:01.650Z,70.80
2017-04-21T00:19:59.504Z,70.30
2017-04-21T00:20:57.370Z,70.30
2017-04-21T00:21:55.282Z,69.50
2017-04-21T00:22:53.125Z,69.10
2017-04-21T00:23:50.993Z,69.60
2017-04-21T00:24:48.877Z,69.20
2017-04-21T00:25:46.728Z,69.70
2017-04-21T00:26:44.608Z,69.90
2017-04-21T00:27:42.536Z,70.30
2017-04-21T00:28:40.526Z,70.70
2017-04-21T00:29:38.447Z,70.70
2017-04-21T00:30:36.344Z,71.20
2017-04-21T00:31:34.236Z,71.50
2017-04-21T00:32:32.085Z,71.30
2017-04-21T00:33:29.989Z,71.20
2017-04-21T00:34:27.860Z,70.60
2017-04-21T00:35:25.737Z,70.40
2017-04-21T00:36:23.596Z,70.20
2017-04-21T00:37:21.498Z,70.60
2017-04-21T00:38:19.424Z,70.60
2017-04-21T00:39:17.266Z,70.60
2017-04-21T00:40:15.124Z,71.30
2017-04-21T00:41:13.076Z,71.90
2017-04-21T00:42:10.964Z,70.90
2017-04-21T00:43:08.883Z,69.90
2017-04-21T00:44:06.812Z,70.30
2017-04-21T00:45:04.656Z,71.30
2017-04-21T00:46:02.504Z,71.60
2017-04-21T00:47:00.365Z,71.80
2017-04-21T00:47:58.277Z,71.60
2017-04-21T00:48:56.141Z,70.80
2017-04-21T00:49:54.024Z,70.10
2017-04-21T00:50:51.889Z,70.60
2017-04-21T00:51:49.745Z,70.10
2017-04-21T00:52:47.613Z,70.10
2017-04-21T00:53:45.517Z,70.90
2017-04-21T00:54:43.388Z,71.30
2017-04-21T00:55:41.364Z,71.30
2017-04-21T00:56:39.300Z,71.00
2017-04-21T00:57:37.181Z,71.30
2017-04-21T00:58:35.040Z,70.70
2017-04-21T00:59:33.193Z,70.60
2017-04-21T01:00:31.077Z,70.40
2017-04-21T01:01:28.985Z,69.50
2017-04-21T01:02:26.949Z,70.30
2017-04-21T01:03:24.821Z,70.70
2017-04-21T01:04:22.700Z,70.80
2017-04-21T01:05:20.549Z,70.20
2017-04-21T01:06:18.438Z,70.30
2017-04-21T01:07:16.349Z,70.10
2017-04-21T01:08:14.249Z,70.40
2017-04-21T01:09:12.158Z,70.80
2017-04-21T01:10:10.092Z,70.30
2017-04-21T01:11:08.061Z,70.10
2017-04-21T01:12:05.896Z,70.70
2017-04-21T01:13:03.781Z,70.30
2017-04-21T01:14:01.629Z,70.00
2017-04-21T01:14:59.553Z,69.90
2017-04-21T01:15:57.467Z,70.20
2017-04-21T01:16:55.329Z,70.30
2017-04-21T01:17:53.228Z,70.40
2017-04-21T01:18:51.085Z,70.20
2017-04-21T01:19:48.980Z,70.70
2017-04-21T01:20:46.969Z,70.70
2017-04-21T01:21:44.820Z,70.70
2017-04-21T01:22:42.681Z,70.60
2017-04-21T01:23:40.677Z,70.60
2017-04-21T01:24:38.603Z,70.90
2017-04-21T01:25:36.490Z,71.30
2017-04-21T01:26:34.365Z,71.20
2017-04-21T01:27:32.240Z,70.60
2017-04-21T01:28:30.096Z,70.90
2017-04-21T01:29:28.006Z,71.00
2017-04-21T01:30:25.912Z,70.60
2017-04-21T01:31:23.808Z,70.10
2017-04-21T01:32:21.668Z,70.50
2017-04-21T01:33:19.601Z,69.70
2017-04-21T01:34:17.492Z,69.50
2017-04-21T01:35:15.353Z,69.20
2017-04-21T01:36:13.333Z,69.10
2017-04-21T01:37:11.243Z,69.50
2017-04-21T01:38:09.195Z,70.00
2017-04-21T01:39:07.106Z,70.30
2017-04-21T01:40:04.950Z,69.90
2017-04-21T01:41:02.803Z,70.00
2017-04-21T01:42:00.702Z,70.40
2017-04-21T01:42:58.569Z,70.50
2017-04-21T01:43:56.424Z,70.40
2017-04-21T01:44:54.293Z,70.40
2017-04-21T01:45:52.181Z,69.50
2017-04-21T01:46:50.049Z,69.70
2017-04-21T01:47:47.941Z,69.50
2017-04-21T01:48:45.805Z,69.60
2017-04-21T01:49:43.665Z,70.30
2017-04-21T01:50:41.556Z,69.70
2017-04-21T01:51:39.441Z,69.90
2017-04-21T01:52:37.369Z,71.20
2017-04-21T01:53:35.318Z,69.80
2017-04-21T01:54:33.161Z,69.30
2017-04-21T01:55:31.025Z,69.10
2017-04-21T01:56:28.891Z,69.30
2017-04-21T01:57:26.732Z,69.30
2017-04-21T01:58:24.574Z,68.80
2017-04-21T01:59:22.477Z,68.80
2017-04-21T02:00:20.342Z,69.10
2017-04-21T02:01:18.224Z,69.70
2017-04-21T02:02:16.088Z,70.20
2017-04-21T02:03:13.965Z,70.00
2017-04-21T02:04:11.905Z,69.00
2017-04-21T02:05:09.949Z,69.30
2017-04-21T02:06:07.872Z,69.20
2017-04-21T02:07:05.725Z,69.20
2017-04-21T02:08:03.580Z,69.60
2017-04-21T02:09:01.424Z,69.90
2017-04-21T02:09:59.323Z,69.70
2017-04-21T02:10:57.181Z,70.00
2017-04-21T02:11:55.040Z,69.90
2017-04-21T02:12:52.893Z,69.60
2017-04-21T02:13:50.788Z,68.90
2017-04-21T02:14:48.756Z,69.10
2017-04-21T02:15:46.621Z,69.30
2017-04-21T02:16:44.469Z,69.60
2017-04-21T02:17:42.349Z,69.60
2017-04-21T02:18:40.281Z,69.50
2017-04-21T02:19:38.303Z,69.10
2017-04-21T02:20:36.154Z,68.80
2017-04-21T02:21:33.992Z,68.60
2017-04-21T02:22:31.849Z,68.20
2017-04-21T02:23:29.696Z,68.10
2017-04-21T02:24:27.533Z,68.70
2017-04-21T02:25:25.464Z,68.50
2017-04-21T02:26:23.309Z,68.40
2017-04-21T02:27:21.196Z,68.60
2017-04-21T02:28:19.058Z,68.90
2017-04-21T02:29:16.930Z,69.40
2017-04-21T02:30:14.813Z,69.20
2017-04-21T02:31:12.765Z,69.00
2017-04-21T02:32:10.732Z,68.50
2017-04-21T02:33:08.628Z,68.50
2017-04-21T02:34:06.508Z,68.00
2017-04-21T02:35:04.373Z,67.30
2017-04-21T02:36:02.276Z,67.30
2017-04-21T02:37:00.125Z,67.70
2017-04-21T02:37:57.972Z,68.00
2017-04-21T02:38:55.837Z,68.20
2017-04-21T02:39:53.706Z,68.20
2017-04-21T02:40:51.608Z,68.70
2017-04-21T02:41:49.528Z,68.90
2017-04-21T02:42:47.389Z,69.00
2017-04-21T02:43:45.249Z,68.80
2017-04-21T02:44:43.161Z,68.50
2017-04-21T02:45:41.088Z,68.50
2017-04-21T02:46:39.027Z,68.50
2017-04-21T02:47:36.889Z,68.40
2017-04-21T02:48:34.748Z,68.40
2017-04-21T02:49:32.601Z,68.30
2017-04-21T02:50:30.464Z,68.40
2017-04-21T02:51:28.401Z,68.60
2017-04-21T02:52:26.244Z,68.20
2017-04-21T02:53:24.132Z,67.90
2017-04-21T02:54:21.982Z,68.40
2017-04-21T02:55:19.836Z,68.50
2017-04-21T02:56:17.689Z,68.60
2017-04-21T02:57:15.633Z,68.40
2017-04-21T02:58:13.544Z,67.90
2017-04-21T02:59:11.477Z,68.60
2017-04-21T03:00:09.406Z,68.10
2017-04-21T03:01:07.277Z,67.60
2017-04-21T03:02:05.173Z,67.60
2017-04-21T03:03:03.029Z,67.30
2017-04-21T03:04:00.893Z,67.40
2017-04-21T03:04:58.732Z,66.80
2017-04-21T03:05:56.586Z,66.70
2017-04-21T03:06:54.444Z,66.50
2017-04-21T03:07:52.341Z,66.60
2017-04-21T03:08:50.222Z,66.70
2017-04-21T03:09:48.140Z,67.10
2017-04-21T03:10:45.996Z,67.90
2017-04-21T03:11:43.889Z,67.80
2017-04-21T03:12:41.805Z,67.40
2017-04-21T03:13:39.690Z,67.30
2017-04-21T03:14:37.824Z,67.40
2017-04-21T03:15:35.678Z,67.10
2017-04-21T03:16:33.529Z,67.30
2017-04-21T03:17:31.417Z,67.20
2017-04-21T03:18:29.253Z,68.20
2017-04-21T03:19:27.112Z,67.90
2017-04-21T03:20:24.961Z,67.50
2017-04-21T03:21:22.884Z,67.30
2017-04-21T03:22:20.813Z,68.10
2017-04-21T03:23:18.673Z,67.20
2017-04-21T03:24:16.526Z,66.70
2017-04-21T03:25:14.421Z,67.00
2017-04-21T03:26:12.358Z,66.70
2017-04-21T03:27:10.361Z,66.70
2017-04-21T03:28:08.287Z,67.30
2017-04-21T03:29:06.177Z,67.00
2017-04-21T03:30:04.028Z,66.80
2017-04-21T03:31:01.881Z,66.80
2017-04-21T03:31:59.728Z,66.30
2017-04-21T03:32:57.621Z,66.20
2017-04-21T03:33:55.476Z,66.60
2017-04-21T03:34:53.329Z,66.70
2017-04-21T03:35:51.173Z,66.70
2017-04-21T03:36:49.013Z,66.20
2017-04-21T03:37:46.917Z,65.90
2017-04-21T03:38:44.756Z,66.20
2017-04-21T03:39:42.709Z,66.30
2017-04-21T03:40:40.626Z,66.30
2017-04-21T03:41:38.576Z,66.70
2017-04-21T03:42:36.433Z,66.90
2017-04-21T03:43:34.322Z,66.80
2017-04-21T03:44:32.173Z,67.10
2017-04-21T03:45:30.009Z,68.00
2017-04-21T03:46:27.849Z,67.10
2017-04-21T03:47:25.688Z,67.10
2017-04-21T03:48:23.601Z,67.10
2017-04-21T03:49:21.452Z,67.00
2017-04-21T03:50:19.314Z,66.90
2017-04-21T03:51:17.169Z,66.70
2017-04-21T03:52:15.025Z,67.60
2017-04-21T03:53:12.926Z,66.00
2017-04-21T03:54:10.847Z,65.90
2017-04-21T03:55:08.732Z,66.20
2017-04-21T03:56:06.574Z,66.30
2017-04-21T03:57:04.428Z,66.00
2017-04-21T03:58:02.325Z,65.90
2017-04-21T03:59:00.180Z,65.50
2017-04-21T03:59:58.058Z,64.60
2017-04-21T04:00:55.929Z,64.90
2017-04-21T04:01:53.789Z,64.80
2017-04-21T04:02:51.639Z,65.00
2017-04-21T04:03:49.533Z,64.70
2017-04-21T04:04:47.380Z,64.60
2017-04-21T04:05:45.237Z,64.90
2017-04-21T04:06:43.113Z,65.30
2017-04-21T04:07:41.025Z,65.30
2017-04-21T04:08:39.053Z,65.70
2017-04-21T04:09:36.948Z,65.50
2017-04-21T04:10:34.809Z,65.50
2017-04-21T04:11:32.740Z,65.00
2017-04-21T04:12:30.790Z,65.10
2017-04-21T04:13:28.649Z,64.90
2017-04-21T04:14:26.514Z,63.50
2017-04-21T04:15:24.369Z,64.00
2017-04-21T04:16:22.217Z,64.10
2017-04-21T04:17:20.110Z,64.50
2017-04-21T04:18:17.960Z,64.50
2017-04-21T04:19:15.817Z,64.30
2017-04-21T04:20:13.709Z,63.30
2017-04-21T04:21:11.609Z,62.10
2017-04-21T04:22:09.529Z,60.20
2017-04-21T04:23:07.543Z,59.30
2017-04-21T04:24:05.408Z,59.20
2017-04-21T04:25:03.265Z,59.60
2017-04-21T04:26:01.112Z,59.60
2017-04-21T04:26:58.965Z,59.10
2017-04-21T04:27:56.848Z,59.70
2017-04-21T04:28:54.724Z,60.30
2017-04-21T04:29:52.623Z,60.30
2017-04-21T04:30:50.473Z,59.70
2017-04-21T04:31:48.313Z,59.10
2017-04-21T04:32:46.157Z,59.20
2017-04-21T04:33:44.093Z,58.40
2017-04-21T04:34:42.404Z,58.80
2017-04-21T04:35:40.336Z,58.80
2017-04-21T04:36:38.340Z,58.80
2017-04-21T04:37:36.199Z,58.70
2017-04-21T04:38:34.052Z,58.70
2017-04-21T04:39:31.953Z,58.20
2017-04-21T04:40:29.825Z,57.80
2017-04-21T04:41:27.688Z,58.10
2017-04-21T04:42:25.533Z,57.40
2017-04-21T04:43:23.696Z,57.50
2017-04-21T04:44:21.549Z,57.50
2017-04-21T04:45:19.476Z,57.80
2017-04-21T04:46:17.320Z,57.50
2017-04-21T04:47:15.169Z,57.60
2017-04-21T04:48:13.074Z,57.60
2017-04-21T04:49:11.085Z,57.10
2017-04-21T04:50:09.017Z,57.00
2017-04-21T04:51:06.925Z,57.30
2017-04-21T04:52:04.833Z,57.90
2017-04-21T04:53:02.677Z,57.40
2017-04-21T04:54:00.509Z,57.50
2017-04-21T04:54:58.354Z,56.70
2017-04-21T04:55:56.256Z,56.50
2017-04-21T04:56:54.128Z,56.70
2017-04-21T04:57:52.021Z,56.50
2017-04-21T04:58:49.896Z,56.60
2017-04-21T04:59:47.753Z,56.50
2017-04-21T05:00:45.609Z,56.50
2017-04-21T05:01:43.571Z,56.50
2017-04-21T05:02:41.460Z,56.40
2017-04-21T05:03:39.369Z,56.00
2017-04-21T05:04:37.278Z,55.10
2017-04-21T05:05:35.137Z,55.50
2017-04-21T05:06:32.988Z,55.80
2017-04-21T05:07:30.925Z,56.00
2017-04-21T05:08:28.769Z,55.90
2017-04-21T05:09:26.619Z,55.90
2017-04-21T05:10:24.457Z,55.60
2017-04-21T05:11:22.301Z,56.40
2017-04-21T05:12:20.153Z,57.10
2017-04-21T05:13:18.074Z,56.50
2017-04-21T05:14:15.948Z,56.20
2017-04-21T05:15:13.900Z,56.80
2017-04-21T05:16:11.821Z,57.40
2017-04-21T05:17:09.736Z,57.80
2017-04-21T05:18:07.701Z,56.50
2017-04-21T05:19:05.557Z,55.20
2017-04-21T05:20:03.424Z,54.60
2017-04-21T05:21:01.262Z,54.30
2017-04-21T05:21:59.097Z,54.40
2017-04-21T05:22:56.933Z,54.60
2017-04-21T05:23:54.831Z,54.70
2017-04-21T05:24:52.684Z,54.80
2017-04-21T05:25:50.558Z,55.20
2017-04-21T05:26:48.397Z,55.70
2017-04-21T05:27:46.237Z,55.60
2017-04-21T05:28:44.219Z,56.00
2017-04-21T05:29:42.110Z,56.20
2017-04-21T05:30:41.558Z,55.90
2017-04-21T05:31:39.456Z,55.80
2017-04-21T05:32:37.336Z,55.90
2017-04-21T05:33:35.258Z,56.30
2017-04-21T05:34:33.201Z,56.30
2017-04-21T05:35:31.064Z,55.80
2017-04-21T05:36:28.910Z,55.00
2017-04-21T05:37:26.757Z,55.30
2017-04-21T05:38:24.609Z,55.90
2017-04-21T05:39:22.508Z,56.10
2017-04-21T05:40:20.413Z,56.80
2017-04-21T05:41:18.277Z,56.90
2017-04-21T05:42:16.140Z,57.10
2017-04-21T05:43:14.045Z,57.80
2017-04-21T05:44:11.941Z,57.70
2017-04-21T05:45:09.873Z,57.80
2017-04-21T05:46:07.890Z,58.00
2017-04-21T05:47:05.738Z,55.80
2017-04-21T05:48:03.605Z,55.50
2017-04-21T05:49:01.459Z,56.20
2017-04-21T05:49:59.443Z,56.70
2017-04-21T05:50:57.353Z,57.00
2017-04-21T05:51:55.297Z,57.20
2017-04-21T05:52:53.158Z,57.40
2017-04-21T05:53:51.040Z,56.90
2017-04-21T05:54:48.904Z,56.60
2017-04-21T05:55:46.755Z,56.60
2017-04-21T05:56:44.648Z,56.80
2017-04-21T05:57:42.533Z,57.00
2017-04-21T05:58:40.463Z,57.60
2017-04-21T05:59:38.393Z,57.80
2017-04-21T06:00:36.244Z,57.70
2017-04-21T06:01:34.101Z,57.40
2017-04-21T06:02:32.052Z,57.10
2017-04-21T06:03:29.896Z,56.90
2017-04-21T06:04:27.740Z,56.70
2017-04-21T06:05:25.589Z,56.40
2017-04-21T06:06:23.433Z,57.10
2017-04-21T06:07:21.301Z,57.30
2017-04-21T06:08:19.213Z,57.30
2017-04-21T06:09:17.097Z,55.80
2017-04-21T06:10:15.025Z,55.20
2017-04-21T06:11:12.966Z,55.00
2017-04-21T06:12:10.892Z,54.40
2017-04-21T06:13:08.820Z,54.90
2017-04-21T06:14:06.704Z,54.90
2017-04-21T06:15:04.568Z,53.60
2017-04-21T06:16:02.478Z,52.60
2017-04-21T06:17:00.368Z,52.60
2017-04-21T06:17:58.261Z,52.70
2017-04-21T06:18:56.137Z,53.00
2017-04-21T06:19:54.032Z,53.30
2017-04-21T06:20:51.942Z,52.70
2017-04-21T06:21:49.793Z,53.10
2017-04-21T06:22:47.637Z,53.30
2017-04-21T06:23:45.574Z,53.40
2017-04-21T06:24:43.520Z,53.50
2017-04-21T06:25:41.477Z,52.60
2017-04-21T06:26:39.420Z,52.60
2017-04-21T06:27:37.306Z,52.70
2017-04-21T06:28:35.217Z,52.40
2017-04-21T06:29:33.096Z,51.80
2017-04-21T06:30:30.952Z,51.70
2017-04-21T06:31:28.800Z,51.00
2017-04-21T06:32:26.653Z,50.30
2017-04-21T06:33:24.521Z,49.70
2017-04-21T06:34:22.473Z,49.70
2017-04-21T06:35:20.332Z,49.30
2017-04-21T06:36:18.182Z,49.00
2017-04-21T06:37:16.089Z,49.30
2017-04-21T06:38:13.983Z,49.20
2017-04-21T06:39:11.951Z,49.20
2017-04-21T06:40:09.832Z,48.90
2017-04-21T06:41:07.702Z,49.20
2017-04-21T06:42:05.533Z,49.40
2017-04-21T06:43:03.434Z,49.50
2017-04-21T06:44:01.289Z,49.50
2017-04-21T06:44:59.149Z,50.00
2017-04-21T06:45:57.001Z,50.20
2017-04-21T06:46:54.858Z,49.70
2017-04-21T06:47:52.705Z,49.20
2017-04-21T06:48:50.596Z,49.50
2017-04-21T06:49:48.433Z,50.00
2017-04-21T06:50:46.274Z,50.10
2017-04-21T06:51:44.173Z,49.40
2017-04-21T06:52:42.098Z,49.90
2017-04-21T06:53:40.064Z,50.00
2017-04-21T06:54:37.964Z,49.50
2017-04-21T06:55:35.820Z,49.00
2017-04-21T06:56:33.660Z,48.90
2017-04-21T06:57:31.509Z,48.80
2017-04-21T06:58:29.401Z,48.70
2017-04-21T06:59:27.261Z,48.90
2017-04-21T07:00:25.125Z,48.80
2017-04-21T07:01:22.989Z,48.70
2017-04-21T07:02:23.761Z,48.50
2017-04-21T07:03:21.604Z,48.70
2017-04-21T07:04:19.525Z,48.80
2017-04-21T07:05:17.393Z,49.10
2017-04-21T07:06:15.516Z,48.40
2017-04-21T07:07:13.396Z,48.10
2017-04-21T07:08:11.448Z,48.00
2017-04-21T07:09:09.370Z,48.20
2017-04-21T07:10:07.525Z,47.90
2017-04-21T07:11:05.362Z,47.60
2017-04-21T07:12:03.217Z,47.60
2017-04-21T07:13:01.093Z,47.20
2017-04-21T07:13:58.949Z,47.40
2017-04-21T07:14:56.828Z,47.60
2017-04-21T07:15:54.666Z,47.90
2017-04-21T07:16:52.505Z,48.00
2017-04-21T07:17:50.348Z,47.90
2017-04-21T07:18:48.206Z,48.20
2017-04-21T07:19:46.104Z,48.50
2017-04-21T07:20:43.993Z,48.40
2017-04-21T07:21:41.966Z,48.50
2017-04-21T07:22:39.848Z,48.30
2017-04-21T07:23:37.796Z,48.30
2017-04-21T07:24:35.645Z,49.00
2017-04-21T07:25:33.521Z,49.00
2017-04-21T07:26:31.421Z,48.80
2017-04-21T07:27:29.331Z,49.10
2017-04-21T07:28:27.164Z,48.50
2017-04-21T07:29:25.001Z,48.70
2017-04-21T07:30:23.021Z,48.90
2017-04-21T07:31:20.860Z,48.70
2017-04-21T07:32:18.701Z,48.80
2017-04-21T07:33:16.576Z,48.90
2017-04-21T07:34:14.437Z,48.90
2017-04-21T07:35:12.347Z,48.80
2017-04-21T07:36:10.276Z,47.90
2017-04-21T07:37:08.218Z,48.20
2017-04-21T07:38:06.266Z,48.20
2017-04-21T07:39:04.318Z,48.30
2017-04-21T07:40:02.178Z,48.40
2017-04-21T07:41:00.013Z,48.20
2017-04-21T07:41:57.917Z,48.20
2017-04-21T07:42:55.818Z,47.80
2017-04-21T07:43:53.662Z,47.70
2017-04-21T07:44:51.496Z,47.90
2017-04-21T07:45:49.340Z,48.20
2017-04-21T07:46:47.193Z,47.80
2017-04-21T07:47:45.085Z,48.20
2017-04-21T07:48:42.993Z,48.20
2017-04-21T07:49:40.905Z,48.30
2017-04-21T07:50:38.816Z,48.20
2017-04-21T07:51:36.688Z,48.10
2017-04-21T07:52:34.572Z,48.40
2017-04-21T07:53:32.424Z,48.00
2017-04-21T07:54:30.267Z,47.80
2017-04-21T07:55:28.112Z,48.20
2017-04-21T07:56:25.948Z,48.00
2017-04-21T07:57:23.804Z,47.20
2017-04-21T07:58:21.673Z,46.70
2017-04-21T07:59:19.516Z,47.10
2017-04-21T08:00:17.353Z,47.50
2017-04-21T08:01:15.289Z,48.00
2017-04-21T08:02:13.240Z,47.60
2017-04-21T08:03:11.171Z,48.00
2017-04-21T08:04:09.152Z,48.60
2017-04-21T08:05:07.051Z,48.50
2017-04-21T08:06:04.909Z,47.50
2017-04-21T08:07:02.767Z,47.40
2017-04-21T08:08:00.612Z,47.60
2017-04-21T08:08:58.498Z,48.20
2017-04-21T08:09:56.370Z,47.70
2017-04-21T08:10:54.226Z,48.00
2017-04-21T08:11:52.081Z,47.90
2017-04-21T08:12:49.962Z,47.20
2017-04-21T08:13:47.871Z,47.30
2017-04-21T08:14:45.737Z,47.30
2017-04-21T08:15:43.641Z,47.70
2017-04-21T08:16:41.576Z,47.90
2017-04-21T08:17:39.544Z,47.80
2017-04-21T08:18:37.425Z,47.70
2017-04-21T08:19:35.302Z,48.30
2017-04-21T08:20:33.140Z,47.70
2017-04-21T08:21:31.012Z,47.50
2017-04-21T08:22:28.857Z,47.50
2017-04-21T08:23:26.708Z,47.60
2017-04-21T08:24:24.588Z,46.90
2017-04-21T08:25:22.461Z,46.40
2017-04-21T08:26:20.304Z,46.50
2017-04-21T08:27:18.157Z,46.30
2017-04-21T08:28:16.001Z,46.50
2017-04-21T08:29:13.965Z,46.70
2017-04-21T08:30:11.879Z,46.30
2017-04-21T08:31:09.805Z,46.50
2017-04-21T08:32:07.685Z,46.30
2017-04-21T08:33:05.545Z,46.30
2017-04-21T08:34:03.395Z,46.60
2017-04-21T08:35:01.324Z,46.40
2017-04-21T08:35:59.185Z,46.50
2017-04-21T08:36:57.039Z,46.40
2017-04-21T08:37:54.909Z,45.80
2017-04-21T08:38:52.753Z,45.80
2017-04-21T08:39:50.666Z,46.60
2017-04-21T08:40:48.536Z,45.80
2017-04-21T08:41:46.391Z,45.70
2017-04-21T08:42:44.317Z,45.90
2017-04-21T08:43:42.233Z,45.80
2017-04-21T08:44:40.134Z,46.00
2017-04-21T08:45:38.089Z,46.10
2017-04-21T08:46:35.940Z,46.60
2017-04-21T08:47:33.809Z,46.50
2017-04-21T08:48:31.665Z,46.50
2017-04-21T08:49:29.505Z,45.90
2017-04-21T08:50:27.397Z,45.90
2017-04-21T08:51:25.255Z,46.10
2017-04-21T08:52:23.122Z,46.00
2017-04-21T08:53:20.968Z,46.10
2017-04-21T08:54:18.820Z,46.50
2017-04-21T08:55:16.670Z,46.70
2017-04-21T08:56:14.652Z,47.10
2017-04-21T08:57:12.557Z,47.00
2017-04-21T08:58:10.509Z,47.00
2017-04-21T08:59:08.436Z,47.30
2017-04-21T09:00:06.304Z,47.20
2017-04-21T09:01:04.181Z,46.90
2017-04-21T09:02:02.089Z,46.30
2017-04-21T09:02:59.977Z,46.80
2017-04-21T09:03:57.826Z,46.70
2017-04-21T09:04:55.744Z,45.90
2017-04-21T09:05:53.697Z,45.60
2017-04-21T09:06:51.615Z,46.10
2017-04-21T09:07:49.452Z,46.10
2017-04-21T09:08:47.296Z,46.20
2017-04-21T09:09:45.149Z,45.90
2017-04-21T09:10:43.021Z,46.00
2017-04-21T09:11:40.933Z,45.80
2017-04-21T09:12:38.902Z,45.60
2017-04-21T09:13:36.765Z,45.70
2017-04-21T09:14:34.633Z,46.00
2017-04-21T09:15:32.473Z,45.90
2017-04-21T09:16:30.316Z,45.70
2017-04-21T09:17:28.211Z,45.50
2017-04-21T09:18:26.104Z,45.70
2017-04-21T09:19:23.949Z,45.30
2017-04-21T09:20:21.816Z,44.80
2017-04-21T09:21:19.670Z,44.80
2017-04-21T09:22:17.509Z,45.10
2017-04-21T09:23:15.405Z,45.60
2017-04-21T09:24:13.245Z,45.80
2017-04-21T09:25:11.146Z,44.30
2017-04-21T09:26:09.030Z,44.40
2017-04-21T09:27:07.610Z,44.60
2017-04-21T09:28:05.526Z,44.50
2017-04-21T09:29:03.516Z,43.90
2017-04-21T09:30:01.398Z,44.40
2017-04-21T09:30:59.245Z,44.20
2017-04-21T09:31:57.125Z,44.20
2017-04-21T09:33:55.382Z,43.90
2017-04-21T09:34:17.444Z,44.00
2017-04-21T09:34:50.873Z,44.40
2017-04-21T09:36:17.884Z,44.90
2017-04-21T09:36:46.646Z,44.50
2017-04-21T09:37:44.558Z,44.60
2017-04-21T09:38:42.449Z,44.80
2017-04-21T09:39:40.396Z,43.80
2017-04-21T09:40:38.294Z,43.30
2017-04-21T09:41:36.141Z,43.00
2017-04-21T09:42:33.996Z,42.40
2017-04-21T09:43:31.886Z,42.70
2017-04-21T09:44:29.785Z,42.50
2017-04-21T09:45:27.653Z,42.20
2017-04-21T09:46:25.497Z,41.30
2017-04-21T09:47:23.371Z,41.10
2017-04-21T09:48:21.231Z,40.80
2017-04-21T09:49:19.087Z,40.60
2017-04-21T09:50:17.031Z,41.10
2017-04-21T09:51:14.881Z,42.10
2017-04-21T09:54:13.539Z,41.60
2017-04-21T09:54:14.143Z,41.10
2017-04-21T09:56:08.092Z,40.80
2017-04-21T09:57:02.449Z,41.80
2017-04-21T09:57:36.235Z,41.80
2017-04-21T09:59:59.154Z,41.50
2017-04-21T10:02:28.138Z,42.60
2017-04-21T10:02:40.135Z,42.60
2017-04-21T10:03:25.640Z,41.70
2017-04-21T10:04:00.300Z,42.10
2017-04-21T10:04:36.871Z,41.30
2017-04-21T10:06:18.791Z,41.40
2017-04-21T10:06:41.352Z,41.20
2017-04-21T10:07:02.362Z,41.40
2017-04-21T10:07:39.315Z,41.70
2017-04-21T10:07:42.357Z,40.90
2017-04-21T10:08:20.827Z,41.30
2017-04-21T10:08:37.684Z,41.30
2017-04-21T10:09:35.565Z,41.40
2017-04-21T10:10:33.414Z,41.50
2017-04-21T10:11:31.253Z,40.50
2017-04-21T10:12:29.097Z,40.60
2017-04-21T10:13:26.997Z,40.80
2017-04-21T10:14:24.849Z,40.90
2017-04-21T10:15:22.690Z,41.00
2017-04-21T10:16:20.540Z,41.30
2017-04-21T10:17:18.456Z,41.70
2017-04-21T10:18:16.309Z,40.30
2017-04-21T10:19:14.188Z,39.30
2017-04-21T10:20:12.074Z,40.00
2017-04-21T10:21:09.968Z,40.20
2017-04-21T10:22:07.871Z,40.30
2017-04-21T10:23:05.788Z,40.50
2017-04-21T10:24:03.710Z,40.50
2017-04-21T10:25:01.597Z,42.00
2017-04-21T10:25:59.449Z,41.00
2017-04-21T10:26:57.289Z,40.90
2017-04-21T10:27:55.234Z,40.80
2017-04-21T10:28:53.081Z,39.80
2017-04-21T10:29:50.982Z,39.50
2017-04-21T10:30:48.837Z,39.60
2017-04-21T10:31:46.689Z,39.40
2017-04-21T10:32:44.560Z,39.70
2017-04-21T10:33:42.508Z,40.00
2017-04-21T10:34:40.420Z,39.60
2017-04-21T10:35:38.340Z,39.70
2017-04-21T10:36:36.200Z,38.70
2017-04-21T10:37:34.045Z,38.10
2017-04-21T10:38:31.914Z,38.40
2017-04-21T10:39:29.792Z,38.60
2017-04-21T10:40:27.640Z,38.30
2017-04-21T10:41:57.596Z,38.30
2017-04-21T10:42:55.485Z,38.20
2017-04-21T10:43:53.369Z,38.30
2017-04-21T10:44:51.217Z,38.60
2017-04-21T10:45:49.052Z,38.60
2017-04-21T10:46:46.905Z,39.20
2017-04-21T10:47:44.819Z,38.80
2017-04-21T10:48:42.781Z,38.90
2017-04-21T10:49:40.728Z,38.10
2017-04-21T10:50:38.621Z,38.30
2017-04-21T10:51:36.457Z,38.90
2017-04-21T10:52:34.293Z,39.20
2017-04-21T10:53:32.130Z,39.30
2017-04-21T10:54:30.019Z,38.70
2017-04-21T10:55:27.892Z,39.10
2017-04-21T10:56:25.723Z,39.00
2017-04-21T10:57:23.576Z,38.80
2017-04-21T10:58:21.423Z,38.30
2017-04-21T10:59:19.357Z,38.60
2017-04-21T11:00:17.216Z,38.60
2017-04-21T11:01:15.120Z,38.10
2017-04-21T11:02:13.036Z,37.90
2017-04-21T11:03:10.917Z,37.70
2017-04-21T11:04:08.861Z,39.20
2017-04-21T11:05:06.721Z,38.10
2017-04-21T11:06:04.608Z,37.10
2017-04-21T11:07:02.461Z,36.80
2017-04-21T11:08:00.300Z,37.00
2017-04-21T11:08:58.220Z,37.00
2017-04-21T11:09:56.061Z,37.20
2017-04-21T11:10:53.925Z,37.40
2017-04-21T11:11:51.769Z,37.70
2017-04-21T11:12:49.627Z,37.60
2017-04-21T11:13:47.493Z,37.70
2017-04-21T11:14:45.393Z,38.30
2017-04-21T11:15:43.304Z,38.80
2017-04-21T11:16:41.230Z,37.70
2017-04-21T11:17:39.141Z,37.70
2017-04-21T11:18:36.999Z,37.30
2017-04-21T11:19:34.873Z,37.40
2017-04-21T11:20:32.745Z,37.30
2017-04-21T11:21:30.748Z,37.50
2017-04-21T11:22:28.604Z,37.10
2017-04-21T11:23:26.449Z,37.40
2017-04-21T11:24:24.366Z,38.00
2017-04-21T11:25:22.242Z,38.40
2017-04-21T11:26:20.084Z,38.00
2017-04-21T11:27:17.940Z,38.20
2017-04-21T11:28:16.073Z,37.90
2017-04-21T11:29:14.081Z,37.60
2017-04-21T11:30:12.027Z,37.30
2017-04-21T11:31:09.928Z,37.80
2017-04-21T11:32:07.801Z,37.20
2017-04-21T11:33:05.645Z,37.00
2017-04-21T11:34:03.501Z,37.20
2017-04-21T11:35:01.369Z,37.00
2017-04-21T11:35:59.216Z,37.00
2017-04-21T11:36:57.104Z,37.30
2017-04-21T11:37:54.952Z,37.10
2017-04-21T11:38:52.797Z,36.90
2017-04-21T11:39:50.648Z,37.10
2017-04-21T11:40:48.525Z,36.90
2017-04-21T11:41:46.356Z,37.60
2017-04-21T11:42:44.312Z,36.70
2017-04-21T11:43:42.177Z,36.80
2017-04-21T11:44:40.065Z,36.20
2017-04-21T11:45:37.945Z,36.60
2017-04-21T11:46:35.777Z,36.40
2017-04-21T11:47:33.624Z,36.50
2017-04-21T11:48:31.504Z,36.50
2017-04-21T11:49:29.348Z,36.80
2017-04-21T11:50:27.217Z,36.20
2017-04-21T11:51:25.093Z,36.50
2017-04-21T11:52:23.001Z,36.20
2017-04-21T11:53:20.846Z,36.70
2017-04-21T11:54:18.725Z,36.60
2017-04-21T11:55:16.588Z,36.20
2017-04-21T11:56:14.493Z,35.40
2017-04-21T11:57:12.429Z,34.90
2017-04-21T11:58:10.376Z,35.00
2017-04-21T11:59:08.261Z,35.00
2017-04-21T12:00:06.132Z,35.20
2017-04-21T12:01:04.057Z,35.20
2017-04-21T12:02:01.928Z,35.70
2017-04-21T12:02:59.825Z,36.50
2017-04-21T12:03:57.677Z,36.00
2017-04-21T12:04:55.525Z,36.00
2017-04-21T12:05:53.425Z,35.50
2017-04-21T12:06:51.292Z,35.60
2017-04-21T12:07:49.132Z,36.20
2017-04-21T12:08:47.029Z,36.00
2017-04-21T12:09:44.893Z,35.90
2017-04-21T12:10:42.812Z,35.80
2017-04-21T12:11:40.705Z,35.70
2017-04-21T12:12:38.633Z,35.60
2017-04-21T12:13:36.477Z,35.20
2017-04-21T12:14:34.353Z,35.40
2017-04-21T12:15:32.229Z,36.00
2017-04-21T12:16:30.661Z,35.50
2017-04-21T12:17:28.496Z,35.70
2017-04-21T12:18:26.333Z,35.90
2017-04-21T12:19:24.217Z,35.60
2017-04-21T12:20:22.072Z,36.00
2017-04-21T12:21:19.912Z,35.90
2017-04-21T12:22:17.748Z,36.10
2017-04-21T12:23:15.613Z,35.70
2017-04-21T12:24:13.502Z,34.60
2017-04-21T12:25:11.463Z,35.00
2017-04-21T12:26:09.377Z,33.90